PWSweather.com
Personal Weather Stations
Station Observations
RAINWISE1
Rainwise Factory, Bar Harbor, ME 04609

Rainwise FactoryBar Harbor, ME 04609

Lat: 44.3897429696629, Lon: -68.2077813148499

Elevation: 29

Station Type: Rainwise MK-III

Latest ConditionsUpdated 10:19:00 PM EDT Monday, Mar 27, 2017
Currently Today's Max Today's Min Today's Average
Temperature 32.5°F0.3°C 33.1°F0.6°C 28.3°F-2.1°C 31.3°F-0.4°C
Dew Point 32.0°F0.0°C 32.0°F0.0°C 21.9°F-5.6°C 27.6°F-2.4°C
Winds 1.9 mph E3.1 kmh E 9.5 mph SSE15.3 kmh SSE - 2.8 mph 4.5 kmh
Wind Gusts 3.2 mph5.1 kmh 14.3 mph23.0 kmh - -
Humidity 98% 98% 68% 86%
Pressure 30.08 in1018.6 mb 30.47 in1031.8 mb 30.08 in1018.6 mb -
Precipitation - 0.27 in6.9 mm - -
Hour Temp Dew Point Humidity Winds Wind Gusts Pressure Precip Precip Rate Daily Precip Total
10:19 PM 32.5°F0.3°C 32.0°F0.0°C 98% 1.9 mph E3.1 kmh E 3.2 mph5.1 kmh 30.08 in1018.6 mb 0.00 in0.0 mm 0.00 in0.0 mm 0.27 in6.9 mm
10:14 PM 32.4°F0.2°C 31.9°F-0.1°C 98% 2.0 mph NE3.2 kmh NE 4.2 mph6.8 kmh 30.08 in1018.6 mb 0.00 in0.0 mm 0.00 in0.0 mm 0.27 in6.9 mm
10:09 PM 32.2°F0.1°C 31.7°F-0.2°C 98% 0.9 mph ESE1.4 kmh ESE 2.9 mph4.7 kmh 30.08 in1018.6 mb 0.00 in0.0 mm 0.00 in0.0 mm 0.27 in6.9 mm
10:04 PM 32.3°F0.2°C 31.8°F-0.1°C 98% 1.1 mph E1.8 kmh E 2.5 mph4.0 kmh 30.08 in1018.6 mb 0.00 in0.0 mm 0.00 in0.0 mm 0.27 in6.9 mm
09:59 PM 32.3°F0.2°C 31.8°F-0.1°C 98% 0.7 mph ESE1.1 kmh ESE 1.8 mph2.9 kmh 30.08 in1018.6 mb 0.00 in0.0 mm 0.00 in0.0 mm 0.27 in6.9 mm
09:54 PM 32.5°F0.3°C 32.0°F0.0°C 98% 1.1 mph ENE1.8 kmh ENE 2.7 mph4.3 kmh 30.08 in1018.6 mb 0.00 in0.0 mm 0.00 in0.0 mm 0.27 in6.9 mm
09:49 PM 32.5°F0.3°C 32.0°F0.0°C 98% 1.1 mph ESE1.8 kmh ESE 2.5 mph4.0 kmh 30.09 in1019.0 mb 0.00 in0.0 mm 0.00 in0.0 mm 0.27 in6.9 mm
09:44 PM 32.5°F0.3°C 32.0°F0.0°C 98% 1.2 mph NE1.9 kmh NE 2.6 mph4.2 kmh 30.09 in1019.0 mb 0.00 in0.0 mm 0.00 in0.0 mm 0.27 in6.9 mm
09:39 PM 32.3°F0.2°C 31.8°F-0.1°C 98% 1.1 mph ENE1.8 kmh ENE 2.5 mph4.0 kmh 30.09 in1019.0 mb 0.00 in0.0 mm 0.00 in0.0 mm 0.27 in6.9 mm
09:34 PM 32.3°F0.2°C 31.8°F-0.1°C 98% 2.1 mph E3.4 kmh E 3.7 mph6.0 kmh 30.09 in1019.0 mb 0.00 in0.0 mm 0.00 in0.0 mm 0.27 in6.9 mm
09:29 PM 32.4°F0.2°C 31.9°F-0.1°C 98% 2.1 mph SE3.4 kmh SE 4.2 mph6.8 kmh 30.09 in1019.0 mb 0.00 in0.0 mm 0.00 in0.0 mm 0.27 in6.9 mm
09:24 PM 32.3°F0.2°C 31.8°F-0.1°C 98% 0.7 mph E1.1 kmh E 2.5 mph4.0 kmh 30.10 in1019.3 mb 0.00 in0.0 mm 0.00 in0.0 mm 0.27 in6.9 mm
09:19 PM 32.3°F0.2°C 31.8°F-0.1°C 98% 1.0 mph SE1.6 kmh SE 2.4 mph3.9 kmh 30.10 in1019.3 mb 0.00 in0.0 mm 0.00 in0.0 mm 0.27 in6.9 mm
09:14 PM 32.3°F0.2°C 31.8°F-0.1°C 98% 1.3 mph E2.1 kmh E 2.7 mph4.3 kmh 30.10 in1019.3 mb 0.00 in0.0 mm 0.00 in0.0 mm 0.27 in6.9 mm
09:09 PM 32.3°F0.2°C 31.8°F-0.1°C 98% 2.2 mph E3.5 kmh E 3.8 mph6.1 kmh 30.10 in1019.3 mb 0.00 in0.0 mm 0.00 in0.0 mm 0.27 in6.9 mm
09:04 PM 32.3°F0.2°C 31.8°F-0.1°C 98% 1.7 mph E2.7 kmh E 3.5 mph5.6 kmh 30.10 in1019.3 mb 0.00 in0.0 mm 0.00 in0.0 mm 0.27 in6.9 mm
08:59 PM 32.2°F0.1°C 31.7°F-0.2°C 98% 1.7 mph E2.7 kmh E 3.0 mph4.8 kmh 30.10 in1019.3 mb 0.00 in0.0 mm 0.00 in0.0 mm 0.27 in6.9 mm
08:54 PM 32.2°F0.1°C 31.7°F-0.2°C 98% 2.4 mph ESE3.9 kmh ESE 4.7 mph7.6 kmh 30.10 in1019.3 mb 0.00 in0.0 mm 0.00 in0.0 mm 0.27 in6.9 mm
08:49 PM 32.2°F0.1°C 31.7°F-0.2°C 98% 1.8 mph ESE2.9 kmh ESE 3.5 mph5.6 kmh 30.10 in1019.3 mb 0.00 in0.0 mm 0.00 in0.0 mm 0.27 in6.9 mm
08:44 PM 32.2°F0.1°C 31.7°F-0.2°C 98% 1.8 mph ESE2.9 kmh ESE 3.0 mph4.8 kmh 30.10 in1019.3 mb 0.00 in0.0 mm 0.00 in0.0 mm 0.27 in6.9 mm
08:39 PM 32.2°F0.1°C 31.4°F-0.3°C 97% 2.2 mph SE3.5 kmh SE 3.8 mph6.1 kmh 30.11 in1019.6 mb 0.00 in0.0 mm 0.00 in0.0 mm 0.27 in6.9 mm
08:34 PM 32.3°F0.2°C 31.5°F-0.3°C 97% 1.4 mph SE2.3 kmh SE 3.3 mph5.3 kmh 30.11 in1019.6 mb 0.00 in0.0 mm 0.00 in0.0 mm 0.27 in6.9 mm
08:29 PM 32.2°F0.1°C 31.4°F-0.3°C 97% 1.4 mph ESE2.3 kmh ESE 2.8 mph4.5 kmh 30.11 in1019.6 mb 0.00 in0.0 mm 0.00 in0.0 mm 0.27 in6.9 mm
08:24 PM 32.2°F0.1°C 31.4°F-0.3°C 97% 1.0 mph E1.6 kmh E 2.9 mph4.7 kmh 30.11 in1019.6 mb 0.00 in0.0 mm 0.00 in0.0 mm 0.27 in6.9 mm
08:19 PM 32.2°F0.1°C 31.4°F-0.3°C 97% 2.3 mph SE3.7 kmh SE 4.2 mph6.8 kmh 30.11 in1019.6 mb 0.00 in0.0 mm 0.00 in0.0 mm 0.27 in6.9 mm
08:14 PM 32.2°F0.1°C 31.4°F-0.3°C 97% 0.7 mph ESE1.1 kmh ESE 2.0 mph3.2 kmh 30.11 in1019.6 mb 0.00 in0.0 mm 0.00 in0.0 mm 0.27 in6.9 mm
08:09 PM 32.3°F0.2°C 31.5°F-0.3°C 97% 2.2 mph ESE3.5 kmh ESE 3.6 mph5.8 kmh 30.11 in1019.6 mb 0.00 in0.0 mm 0.00 in0.0 mm 0.27 in6.9 mm
08:04 PM 32.2°F0.1°C 31.4°F-0.3°C 97% 1.4 mph ESE2.3 kmh ESE 2.5 mph4.0 kmh 30.11 in1019.6 mb 0.00 in0.0 mm 0.00 in0.0 mm 0.27 in6.9 mm
07:59 PM 32.2°F0.1°C 31.4°F-0.3°C 97% 1.2 mph SE1.9 kmh SE 2.6 mph4.2 kmh 30.11 in1019.6 mb 0.00 in0.0 mm 0.00 in0.0 mm 0.27 in6.9 mm
07:54 PM 32.2°F0.1°C 31.4°F-0.3°C 97% 2.4 mph ESE3.9 kmh ESE 4.9 mph7.9 kmh 30.11 in1019.6 mb 0.00 in0.0 mm 0.00 in0.0 mm 0.27 in6.9 mm
07:49 PM 32.2°F0.1°C 31.4°F-0.3°C 97% 2.0 mph ESE3.2 kmh ESE 4.1 mph6.6 kmh 30.11 in1019.6 mb 0.00 in0.0 mm 0.00 in0.0 mm 0.26 in6.6 mm
07:44 PM 32.1°F0.1°C 31.3°F-0.4°C 97% 2.0 mph ESE3.2 kmh ESE 4.2 mph6.8 kmh 30.12 in1020.0 mb 0.00 in0.0 mm 0.00 in0.0 mm 0.26 in6.6 mm
07:39 PM 32.1°F0.1°C 31.3°F-0.4°C 97% 1.4 mph ESE2.3 kmh ESE 3.1 mph5.0 kmh 30.12 in1020.0 mb 0.00 in0.0 mm 0.00 in0.0 mm 0.26 in6.6 mm
07:34 PM 32.0°F0.0°C 31.2°F-0.4°C 97% 1.7 mph ESE2.7 kmh ESE 3.3 mph5.3 kmh 30.12 in1020.0 mb 0.00 in0.0 mm 0.00 in0.0 mm 0.26 in6.6 mm
07:29 PM 32.0°F0.0°C 31.2°F-0.4°C 97% 1.2 mph ESE1.9 kmh ESE 2.5 mph4.0 kmh 30.13 in1020.3 mb 0.00 in0.0 mm 0.00 in0.0 mm 0.26 in6.6 mm
07:24 PM 32.0°F0.0°C 31.2°F-0.4°C 97% 0.1 mph ESE0.2 kmh ESE 0.6 mph1.0 kmh 30.13 in1020.3 mb 0.00 in0.0 mm 0.00 in0.0 mm 0.26 in6.6 mm
07:19 PM 32.0°F0.0°C 31.2°F-0.4°C 97% 1.1 mph ESE1.8 kmh ESE 2.8 mph4.5 kmh 30.13 in1020.3 mb 0.00 in0.0 mm 0.00 in0.0 mm 0.26 in6.6 mm
07:14 PM 32.0°F0.0°C 31.2°F-0.4°C 97% 1.3 mph ESE2.1 kmh ESE 3.2 mph5.1 kmh 30.13 in1020.3 mb 0.00 in0.0 mm 0.00 in0.0 mm 0.26 in6.6 mm
07:09 PM 32.0°F0.0°C 31.2°F-0.4°C 97% 0.7 mph ESE1.1 kmh ESE 1.9 mph3.1 kmh 30.13 in1020.3 mb 0.00 in0.0 mm 0.00 in0.0 mm 0.26 in6.6 mm
07:04 PM 32.0°F0.0°C 31.2°F-0.4°C 97% 1.1 mph ESE1.8 kmh ESE 2.6 mph4.2 kmh 30.13 in1020.3 mb 0.00 in0.0 mm 0.00 in0.0 mm 0.26 in6.6 mm
06:59 PM 32.1°F0.1°C 31.1°F-0.5°C 96% 1.5 mph ESE2.4 kmh ESE 2.6 mph4.2 kmh 30.13 in1020.3 mb 0.00 in0.0 mm 0.00 in0.0 mm 0.26 in6.6 mm
06:54 PM 32.1°F0.1°C 31.1°F-0.5°C 96% 1.8 mph ESE2.9 kmh ESE 2.8 mph4.5 kmh 30.13 in1020.3 mb 0.00 in0.0 mm 0.00 in0.0 mm 0.26 in6.6 mm
06:49 PM 32.1°F0.1°C 31.1°F-0.5°C 96% 1.1 mph ESE1.8 kmh ESE 2.4 mph3.9 kmh 30.14 in1020.7 mb 0.00 in0.0 mm 0.00 in0.0 mm 0.26 in6.6 mm
06:44 PM 32.0°F0.0°C 31.0°F-0.6°C 96% 1.5 mph ESE2.4 kmh ESE 3.0 mph4.8 kmh 30.14 in1020.7 mb 0.00 in0.0 mm 0.00 in0.0 mm 0.25 in6.4 mm
06:39 PM 32.0°F0.0°C 31.0°F-0.6°C 96% 2.0 mph ESE3.2 kmh ESE 3.5 mph5.6 kmh 30.14 in1020.7 mb 0.00 in0.0 mm 0.00 in0.0 mm 0.25 in6.4 mm
06:34 PM 32.0°F0.0°C 31.0°F-0.6°C 96% 1.6 mph ESE2.6 kmh ESE 2.7 mph4.3 kmh 30.14 in1020.7 mb 0.00 in0.0 mm 0.00 in0.0 mm 0.25 in6.4 mm
06:29 PM 32.0°F0.0°C 31.0°F-0.6°C 96% 1.7 mph ESE2.7 kmh ESE 3.1 mph5.0 kmh 30.14 in1020.7 mb 0.00 in0.0 mm 0.00 in0.0 mm 0.25 in6.4 mm
06:24 PM 31.8°F-0.1°C 30.8°F-0.7°C 96% 1.2 mph ESE1.9 kmh ESE 2.4 mph3.9 kmh 30.15 in1021.0 mb 0.00 in0.0 mm 0.00 in0.0 mm 0.25 in6.4 mm
06:19 PM 31.8°F-0.1°C 30.8°F-0.7°C 96% 1.3 mph ESE2.1 kmh ESE 2.3 mph3.7 kmh 30.15 in1021.0 mb 0.00 in0.0 mm 0.00 in0.0 mm 0.24 in6.1 mm
06:14 PM 31.8°F-0.1°C 30.8°F-0.7°C 96% 1.1 mph ESE1.8 kmh ESE 2.8 mph4.5 kmh 30.15 in1021.0 mb 0.00 in0.0 mm 0.00 in0.0 mm 0.24 in6.1 mm
06:09 PM 31.8°F-0.1°C 30.5°F-0.8°C 95% 1.1 mph SE1.8 kmh SE 2.5 mph4.0 kmh 30.16 in1021.3 mb 0.00 in0.0 mm 0.00 in0.0 mm 0.23 in5.8 mm
06:04 PM 31.7°F-0.2°C 30.4°F-0.9°C 95% 1.2 mph SE1.9 kmh SE 2.2 mph3.5 kmh 30.16 in1021.3 mb 0.00 in0.0 mm 0.00 in0.0 mm 0.23 in5.8 mm
05:59 PM 31.7°F-0.2°C 30.4°F-0.9°C 95% 0.3 mph SE0.5 kmh SE 0.9 mph1.4 kmh 30.16 in1021.3 mb 0.00 in0.0 mm 0.00 in0.0 mm 0.23 in5.8 mm
05:54 PM 31.6°F-0.2°C 30.3°F-0.9°C 95% 1.5 mph SE2.4 kmh SE 3.0 mph4.8 kmh 30.16 in1021.3 mb 0.00 in0.0 mm 0.00 in0.0 mm 0.23 in5.8 mm
05:49 PM 31.6°F-0.2°C 30.3°F-0.9°C 95% 2.2 mph SE3.5 kmh SE 3.7 mph6.0 kmh 30.16 in1021.3 mb 0.00 in0.0 mm 0.00 in0.0 mm 0.23 in5.8 mm
05:44 PM 31.6°F-0.2°C 30.3°F-0.9°C 95% 1.5 mph SE2.4 kmh SE 2.7 mph4.3 kmh 30.16 in1021.3 mb 0.00 in0.0 mm 0.00 in0.0 mm 0.22 in5.6 mm
05:39 PM 31.6°F-0.2°C 30.1°F-1.1°C 94% 1.9 mph ESE3.1 kmh ESE 3.8 mph6.1 kmh 30.17 in1021.7 mb 0.00 in0.0 mm 0.00 in0.0 mm 0.22 in5.6 mm
05:34 PM 31.7°F-0.2°C 30.2°F-1.0°C 94% 1.6 mph SE2.6 kmh SE 2.9 mph4.7 kmh 30.17 in1021.7 mb 0.00 in0.0 mm 0.00 in0.0 mm 0.22 in5.6 mm
05:29 PM 31.6°F-0.2°C 30.1°F-1.1°C 94% 2.0 mph SE3.2 kmh SE 3.9 mph6.3 kmh 30.17 in1021.7 mb 0.00 in0.0 mm 0.00 in0.0 mm 0.22 in5.6 mm
05:24 PM 31.6°F-0.2°C 30.1°F-1.1°C 94% 1.9 mph SE3.1 kmh SE 3.5 mph5.6 kmh 30.17 in1021.7 mb 0.00 in0.0 mm 0.00 in0.0 mm 0.22 in5.6 mm
05:19 PM 31.6°F-0.2°C 29.8°F-1.2°C 93% 1.4 mph ESE2.3 kmh ESE 2.3 mph3.7 kmh 30.17 in1021.7 mb 0.00 in0.0 mm 0.00 in0.0 mm 0.21 in5.3 mm
05:14 PM 31.7°F-0.2°C 29.9°F-1.2°C 93% 2.0 mph SE3.2 kmh SE 3.3 mph5.3 kmh 30.18 in1022.0 mb 0.00 in0.0 mm 0.00 in0.0 mm 0.21 in5.3 mm
05:09 PM 31.8°F-0.1°C 29.7°F-1.3°C 92% 2.0 mph SE3.2 kmh SE 3.5 mph5.6 kmh 30.18 in1022.0 mb 0.00 in0.0 mm 0.00 in0.0 mm 0.21 in5.3 mm
05:04 PM 31.8°F-0.1°C 29.7°F-1.3°C 92% 2.7 mph ESE4.3 kmh ESE 5.0 mph8.0 kmh 30.18 in1022.0 mb 0.00 in0.0 mm 0.00 in0.0 mm 0.21 in5.3 mm
04:59 PM 31.8°F-0.1°C 29.7°F-1.3°C 92% 2.7 mph ESE4.3 kmh ESE 5.6 mph9.0 kmh 30.18 in1022.0 mb 0.00 in0.0 mm 0.00 in0.0 mm 0.20 in5.1 mm
04:54 PM 31.8°F-0.1°C 29.5°F-1.4°C 91% 3.8 mph SE6.1 kmh SE 6.4 mph10.3 kmh 30.19 in1022.4 mb 0.00 in0.0 mm 0.00 in0.0 mm 0.20 in5.1 mm
04:49 PM 31.8°F-0.1°C 29.5°F-1.4°C 91% 2.2 mph ESE3.5 kmh ESE 3.6 mph5.8 kmh 30.19 in1022.4 mb 0.00 in0.0 mm 0.00 in0.0 mm 0.19 in4.8 mm
04:44 PM 31.8°F-0.1°C 29.2°F-1.6°C 90% 1.6 mph SE2.6 kmh SE 2.6 mph4.2 kmh 30.19 in1022.4 mb 0.00 in0.0 mm 0.00 in0.0 mm 0.19 in4.8 mm
04:39 PM 31.8°F-0.1°C 29.2°F-1.6°C 90% 2.0 mph SE3.2 kmh SE 3.4 mph5.5 kmh 30.18 in1022.0 mb 0.00 in0.0 mm 0.00 in0.0 mm 0.19 in4.8 mm
04:34 PM 32.0°F0.0°C 29.1°F-1.6°C 89% 2.8 mph SE4.5 kmh SE 4.8 mph7.7 kmh 30.18 in1022.0 mb 0.00 in0.0 mm 0.00 in0.0 mm 0.18 in4.6 mm
04:29 PM 32.1°F0.1°C 29.2°F-1.6°C 89% 2.5 mph SE4.0 kmh SE 5.1 mph8.2 kmh 30.19 in1022.4 mb 0.00 in0.0 mm 0.00 in0.0 mm 0.18 in4.6 mm
04:24 PM 32.1°F0.1°C 29.2°F-1.6°C 89% 2.9 mph ESE4.7 kmh ESE 5.0 mph8.0 kmh 30.19 in1022.4 mb 0.00 in0.0 mm 0.00 in0.0 mm 0.18 in4.6 mm
04:19 PM 32.2°F0.1°C 29.3°F-1.5°C 89% 3.2 mph ESE5.1 kmh ESE 5.0 mph8.0 kmh 30.18 in1022.0 mb 0.00 in0.0 mm 0.00 in0.0 mm 0.18 in4.6 mm
04:14 PM 32.3°F0.2°C 29.4°F-1.4°C 89% 3.4 mph SE5.5 kmh SE 5.4 mph8.7 kmh 30.19 in1022.4 mb 0.00 in0.0 mm 0.00 in0.0 mm 0.18 in4.6 mm
04:09 PM 32.5°F0.3°C 29.9°F-1.2°C 90% 3.2 mph SE5.1 kmh SE 5.4 mph8.7 kmh 30.19 in1022.4 mb 0.00 in0.0 mm 0.00 in0.0 mm 0.17 in4.3 mm
04:04 PM 32.5°F0.3°C 29.9°F-1.2°C 90% 3.1 mph SE5.0 kmh SE 5.5 mph8.9 kmh 30.19 in1022.4 mb 0.00 in0.0 mm 0.00 in0.0 mm 0.17 in4.3 mm
03:59 PM 32.5°F0.3°C 29.9°F-1.2°C 90% 5.4 mph SE8.7 kmh SE 8.4 mph13.5 kmh 30.19 in1022.4 mb 0.00 in0.0 mm 0.00 in0.0 mm 0.17 in4.3 mm
03:54 PM 32.6°F0.3°C 30.0°F-1.1°C 90% 3.8 mph SE6.1 kmh SE 6.5 mph10.5 kmh 30.19 in1022.4 mb 0.00 in0.0 mm 0.00 in0.0 mm 0.17 in4.3 mm
03:49 PM 32.6°F0.3°C 30.0°F-1.1°C 90% 3.2 mph SE5.1 kmh SE 5.6 mph9.0 kmh 30.19 in1022.4 mb 0.00 in0.0 mm 0.00 in0.0 mm 0.17 in4.3 mm
03:44 PM 32.6°F0.3°C 30.0°F-1.1°C 90% 3.3 mph SE5.3 kmh SE 5.0 mph8.0 kmh 30.20 in1022.7 mb 0.00 in0.0 mm 0.00 in0.0 mm 0.16 in4.1 mm
03:39 PM 32.5°F0.3°C 30.2°F-1.0°C 91% 4.1 mph SE6.6 kmh SE 6.6 mph10.6 kmh 30.20 in1022.7 mb 0.00 in0.0 mm 0.00 in0.0 mm 0.15 in3.8 mm
03:34 PM 32.3°F0.2°C 30.0°F-1.1°C 91% 3.2 mph SE5.1 kmh SE 5.6 mph9.0 kmh 30.21 in1023.0 mb 0.00 in0.0 mm 0.00 in0.0 mm 0.15 in3.8 mm
03:29 PM 32.3°F0.2°C 30.0°F-1.1°C 91% 3.0 mph SE4.8 kmh SE 5.3 mph8.5 kmh 30.21 in1023.0 mb 0.00 in0.0 mm 0.00 in0.0 mm 0.15 in3.8 mm
03:24 PM 32.2°F0.1°C 29.9°F-1.2°C 91% 3.3 mph SSE5.3 kmh SSE 5.7 mph9.2 kmh 30.21 in1023.0 mb 0.00 in0.0 mm 0.00 in0.0 mm 0.15 in3.8 mm
03:19 PM 32.2°F0.1°C 29.6°F-1.3°C 90% 3.4 mph SE5.5 kmh SE 5.5 mph8.9 kmh 30.21 in1023.0 mb 0.00 in0.0 mm 0.00 in0.0 mm 0.15 in3.8 mm
03:14 PM 32.3°F0.2°C 29.7°F-1.3°C 90% 3.8 mph SE6.1 kmh SE 7.0 mph11.3 kmh 30.21 in1023.0 mb 0.00 in0.0 mm 0.00 in0.0 mm 0.15 in3.8 mm
03:09 PM 32.2°F0.1°C 29.6°F-1.3°C 90% 4.0 mph ESE6.4 kmh ESE 6.8 mph10.9 kmh 30.21 in1023.0 mb 0.00 in0.0 mm 0.00 in0.0 mm 0.15 in3.8 mm
03:04 PM 32.2°F0.1°C 29.6°F-1.3°C 90% 4.6 mph SE7.4 kmh SE 7.8 mph12.6 kmh 30.21 in1023.0 mb 0.00 in0.0 mm 0.00 in0.0 mm 0.13 in3.3 mm
02:59 PM 32.2°F0.1°C 29.6°F-1.3°C 90% 4.3 mph SE6.9 kmh SE 6.7 mph10.8 kmh 30.22 in1023.4 mb 0.00 in0.0 mm 0.00 in0.0 mm 0.13 in3.3 mm
02:54 PM 32.2°F0.1°C 29.3°F-1.5°C 89% 3.9 mph SE6.3 kmh SE 6.4 mph10.3 kmh 30.23 in1023.7 mb 0.00 in0.0 mm 0.00 in0.0 mm 0.13 in3.3 mm
02:49 PM 32.2°F0.1°C 29.3°F-1.5°C 89% 4.2 mph SE6.8 kmh SE 7.4 mph11.9 kmh 30.23 in1023.7 mb 0.00 in0.0 mm 0.00 in0.0 mm 0.13 in3.3 mm
02:44 PM 32.2°F0.1°C 29.1°F-1.6°C 88% 4.4 mph SSE7.1 kmh SSE 6.2 mph10.0 kmh 30.24 in1024.0 mb 0.00 in0.0 mm 0.00 in0.0 mm 0.13 in3.3 mm
02:39 PM 32.2°F0.1°C 29.1°F-1.6°C 88% 5.6 mph SSE9.0 kmh SSE 9.7 mph15.6 kmh 30.25 in1024.4 mb 0.00 in0.0 mm 0.00 in0.0 mm 0.13 in3.3 mm
02:34 PM 32.2°F0.1°C 29.1°F-1.6°C 88% 3.3 mph SE5.3 kmh SE 5.3 mph8.5 kmh 30.25 in1024.4 mb 0.00 in0.0 mm 0.00 in0.0 mm 0.13 in3.3 mm
02:29 PM 32.2°F0.1°C 29.1°F-1.6°C 88% 3.2 mph S5.1 kmh S 4.9 mph7.9 kmh 30.26 in1024.7 mb 0.00 in0.0 mm 0.00 in0.0 mm 0.13 in3.3 mm
02:24 PM 32.3°F0.2°C 29.2°F-1.6°C 88% 3.5 mph SE5.6 kmh SE 5.3 mph8.5 kmh 30.26 in1024.7 mb 0.00 in0.0 mm 0.00 in0.0 mm 0.13 in3.3 mm
02:19 PM 32.3°F0.2°C 29.4°F-1.4°C 89% 4.2 mph SSE6.8 kmh SSE 6.7 mph10.8 kmh 30.26 in1024.7 mb 0.00 in0.0 mm 0.00 in0.0 mm 0.12 in3.0 mm
02:14 PM 32.5°F0.3°C 29.6°F-1.3°C 89% 3.9 mph SSE6.3 kmh SSE 5.9 mph9.5 kmh 30.26 in1024.7 mb 0.00 in0.0 mm 0.00 in0.0 mm 0.11 in2.8 mm
02:09 PM 32.3°F0.2°C 29.4°F-1.4°C 89% 3.6 mph SSE5.8 kmh SSE 5.8 mph9.3 kmh 30.27 in1025.1 mb 0.00 in0.0 mm 0.00 in0.0 mm 0.11 in2.8 mm
02:04 PM 32.4°F0.2°C 29.3°F-1.5°C 88% 3.1 mph SSE5.0 kmh SSE 4.9 mph7.9 kmh 30.26 in1024.7 mb 0.00 in0.0 mm 0.00 in0.0 mm 0.11 in2.8 mm
01:59 PM 32.3°F0.2°C 28.9°F-1.7°C 87% 3.7 mph SSE6.0 kmh SSE 5.4 mph8.7 kmh 30.26 in1024.7 mb 0.00 in0.0 mm 0.00 in0.0 mm 0.11 in2.8 mm
01:54 PM 32.3°F0.2°C 28.9°F-1.7°C 87% 3.7 mph SSE6.0 kmh SSE 5.2 mph8.4 kmh 30.26 in1024.7 mb 0.00 in0.0 mm 0.00 in0.0 mm 0.09 in2.3 mm
01:49 PM 32.3°F0.2°C 28.9°F-1.7°C 87% 5.1 mph SSE8.2 kmh SSE 7.7 mph12.4 kmh 30.27 in1025.1 mb 0.00 in0.0 mm 0.00 in0.0 mm 0.09 in2.3 mm
01:44 PM 32.2°F0.1°C 29.1°F-1.6°C 88% 4.3 mph SE6.9 kmh SE 7.5 mph12.1 kmh 30.27 in1025.1 mb 0.00 in0.0 mm 0.00 in0.0 mm 0.09 in2.3 mm
01:39 PM 32.2°F0.1°C 29.1°F-1.6°C 88% 3.7 mph SE6.0 kmh SE 5.6 mph9.0 kmh 30.27 in1025.1 mb 0.00 in0.0 mm 0.00 in0.0 mm 0.09 in2.3 mm
01:34 PM 32.2°F0.1°C 29.1°F-1.6°C 88% 3.4 mph SE5.5 kmh SE 5.1 mph8.2 kmh 30.28 in1025.4 mb 0.00 in0.0 mm 0.00 in0.0 mm 0.09 in2.3 mm
01:29 PM 32.2°F0.1°C 28.8°F-1.8°C 87% 4.3 mph SSE6.9 kmh SSE 6.5 mph10.5 kmh 30.28 in1025.4 mb 0.00 in0.0 mm 0.00 in0.0 mm 0.07 in1.8 mm
01:24 PM 32.2°F0.1°C 28.8°F-1.8°C 87% 4.2 mph SE6.8 kmh SE 7.2 mph11.6 kmh 30.28 in1025.4 mb 0.00 in0.0 mm 0.00 in0.0 mm 0.07 in1.8 mm
01:19 PM 32.2°F0.1°C 28.5°F-1.9°C 86% 4.2 mph SE6.8 kmh SE 7.1 mph11.4 kmh 30.28 in1025.4 mb 0.00 in0.0 mm 0.00 in0.0 mm 0.07 in1.8 mm
01:14 PM 32.2°F0.1°C 28.5°F-1.9°C 86% 4.2 mph SSE6.8 kmh SSE 6.4 mph10.3 kmh 30.29 in1025.7 mb 0.00 in0.0 mm 0.00 in0.0 mm 0.05 in1.3 mm
01:09 PM 32.1°F0.1°C 28.1°F-2.2°C 85% 4.9 mph SSE7.9 kmh SSE 7.5 mph12.1 kmh 30.30 in1026.1 mb 0.00 in0.0 mm 0.00 in0.0 mm 0.05 in1.3 mm
01:04 PM 32.1°F0.1°C 27.8°F-2.3°C 84% 4.2 mph SSE6.8 kmh SSE 6.2 mph10.0 kmh 30.30 in1026.1 mb 0.00 in0.0 mm 0.00 in0.0 mm 0.05 in1.3 mm
12:59 PM 32.1°F0.1°C 27.2°F-2.7°C 82% 4.6 mph SSE7.4 kmh SSE 6.8 mph10.9 kmh 30.30 in1026.1 mb 0.00 in0.0 mm 0.00 in0.0 mm 0.05 in1.3 mm
12:54 PM 32.1°F0.1°C 26.9°F-2.8°C 81% 5.4 mph SSE8.7 kmh SSE 8.2 mph13.2 kmh 30.31 in1026.4 mb 0.00 in0.0 mm 0.00 in0.0 mm 0.03 in0.8 mm
12:49 PM 32.2°F0.1°C 26.7°F-2.9°C 80% 4.6 mph SSE7.4 kmh SSE 6.4 mph10.3 kmh 30.31 in1026.4 mb 0.00 in0.0 mm 0.00 in0.0 mm 0.03 in0.8 mm
12:44 PM 32.2°F0.1°C 26.7°F-2.9°C 80% 5.9 mph SSE9.5 kmh SSE 9.7 mph15.6 kmh 30.31 in1026.4 mb 0.00 in0.0 mm 0.00 in0.0 mm 0.03 in0.8 mm
12:39 PM 32.2°F0.1°C 26.7°F-2.9°C 80% 6.2 mph S10.0 kmh S 8.5 mph13.7 kmh 30.31 in1026.4 mb 0.00 in0.0 mm 0.00 in0.0 mm 0.01 in0.3 mm
12:34 PM 32.2°F0.1°C 26.4°F-3.1°C 79% 7.9 mph SSE12.7 kmh SSE 14.3 mph23.0 kmh 30.31 in1026.4 mb 0.00 in0.0 mm 0.00 in0.0 mm 0.01 in0.3 mm
12:29 PM 32.2°F0.1°C 26.4°F-3.1°C 79% 5.1 mph SE8.2 kmh SE 7.9 mph12.7 kmh 30.31 in1026.4 mb 0.00 in0.0 mm 0.00 in0.0 mm 0.01 in0.3 mm
12:24 PM 32.2°F0.1°C 26.1°F-3.3°C 78% 6.4 mph SSE10.3 kmh SSE 10.9 mph17.5 kmh 30.32 in1026.8 mb 0.00 in0.0 mm 0.00 in0.0 mm 0.01 in0.3 mm
12:19 PM 32.2°F0.1°C 26.1°F-3.3°C 78% 6.6 mph SSE10.6 kmh SSE 10.9 mph17.5 kmh 30.32 in1026.8 mb 0.00 in0.0 mm 0.00 in0.0 mm 0.00 in0.0 mm
12:14 PM 32.2°F0.1°C 25.8°F-3.4°C 77% 6.1 mph SE9.8 kmh SE 8.8 mph14.2 kmh 30.32 in1026.8 mb 0.00 in0.0 mm 0.00 in0.0 mm 0.00 in0.0 mm
12:09 PM 32.3°F0.2°C 25.3°F-3.7°C 75% 5.6 mph SE9.0 kmh SE 8.9 mph14.3 kmh 30.32 in1026.8 mb 0.00 in0.0 mm 0.00 in0.0 mm 0.00 in0.0 mm
12:04 PM 32.3°F0.2°C 25.3°F-3.7°C 75% 5.6 mph SSE9.0 kmh SSE 9.5 mph15.3 kmh 30.32 in1026.8 mb 0.00 in0.0 mm 0.00 in0.0 mm 0.00 in0.0 mm
11:59 AM 32.5°F0.3°C 25.2°F-3.8°C 74% 7.0 mph SSE11.3 kmh SSE 11.2 mph18.0 kmh 30.32 in1026.8 mb 0.00 in0.0 mm 0.00 in0.0 mm 0.00 in0.0 mm
11:54 AM 32.7°F0.4°C 25.0°F-3.9°C 73% 5.2 mph SSE8.4 kmh SSE 9.7 mph15.6 kmh 30.32 in1026.8 mb 0.00 in0.0 mm 0.00 in0.0 mm 0.00 in0.0 mm
11:49 AM 32.7°F0.4°C 24.7°F-4.1°C 72% 5.8 mph SE9.3 kmh SE 9.9 mph15.9 kmh 30.32 in1026.8 mb 0.00 in0.0 mm 0.00 in0.0 mm 0.00 in0.0 mm
11:44 AM 32.8°F0.4°C 24.4°F-4.2°C 71% 6.3 mph SE10.1 kmh SE 9.7 mph15.6 kmh 30.32 in1026.8 mb 0.00 in0.0 mm 0.00 in0.0 mm 0.00 in0.0 mm
11:39 AM 32.8°F0.4°C 24.4°F-4.2°C 71% 6.7 mph SE10.8 kmh SE 10.6 mph17.1 kmh 30.32 in1026.8 mb 0.00 in0.0 mm 0.00 in0.0 mm 0.00 in0.0 mm
11:34 AM 32.8°F0.4°C 24.4°F-4.2°C 71% 7.2 mph SE11.6 kmh SE 11.0 mph17.7 kmh 30.32 in1026.8 mb 0.00 in0.0 mm 0.00 in0.0 mm 0.00 in0.0 mm
11:29 AM 32.8°F0.4°C 24.8°F-4.0°C 72% 7.6 mph SSE12.2 kmh SSE 11.0 mph17.7 kmh 30.32 in1026.8 mb 0.00 in0.0 mm 0.00 in0.0 mm 0.00 in0.0 mm
11:24 AM 32.8°F0.4°C 24.4°F-4.2°C 71% 6.9 mph SE11.1 kmh SE 11.2 mph18.0 kmh 30.33 in1027.1 mb 0.00 in0.0 mm 0.00 in0.0 mm 0.00 in0.0 mm
11:19 AM 33.0°F0.6°C 24.3°F-4.3°C 70% 5.7 mph SE9.2 kmh SE 8.6 mph13.8 kmh 30.33 in1027.1 mb 0.00 in0.0 mm 0.00 in0.0 mm 0.00 in0.0 mm
11:14 AM 32.9°F0.5°C 23.9°F-4.5°C 69% 6.7 mph SE10.8 kmh SE 10.2 mph16.4 kmh 30.33 in1027.1 mb 0.00 in0.0 mm 0.00 in0.0 mm 0.00 in0.0 mm
11:09 AM 32.8°F0.4°C 23.4°F-4.8°C 68% 7.8 mph SE12.6 kmh SE 11.5 mph18.5 kmh 30.33 in1027.1 mb 0.00 in0.0 mm 0.00 in0.0 mm 0.00 in0.0 mm
11:04 AM 32.8°F0.4°C 23.8°F-4.6°C 69% 7.2 mph SE11.6 kmh SE 11.2 mph18.0 kmh 30.33 in1027.1 mb 0.00 in0.0 mm 0.00 in0.0 mm 0.00 in0.0 mm
10:59 AM 33.0°F0.6°C 24.0°F-4.4°C 69% 8.6 mph SE13.8 kmh SE 14.0 mph22.5 kmh 30.33 in1027.1 mb 0.00 in0.0 mm 0.00 in0.0 mm 0.00 in0.0 mm
10:54 AM 33.1°F0.6°C 24.1°F-4.4°C 69% 7.4 mph SE11.9 kmh SE 11.3 mph18.2 kmh 30.34 in1027.4 mb 0.00 in0.0 mm 0.00 in0.0 mm 0.00 in0.0 mm
10:49 AM 33.0°F0.6°C 24.0°F-4.4°C 69% 7.1 mph SE11.4 kmh SE 11.6 mph18.7 kmh 30.34 in1027.4 mb 0.00 in0.0 mm 0.00 in0.0 mm 0.00 in0.0 mm
10:44 AM 32.8°F0.4°C 24.1°F-4.4°C 70% 6.2 mph SE10.0 kmh SE 9.4 mph15.1 kmh 30.35 in1027.8 mb 0.00 in0.0 mm 0.00 in0.0 mm 0.00 in0.0 mm
10:39 AM 32.8°F0.4°C 24.4°F-4.2°C 71% 7.9 mph SSE12.7 kmh SSE 11.0 mph17.7 kmh 30.35 in1027.8 mb 0.00 in0.0 mm 0.00 in0.0 mm 0.00 in0.0 mm
10:34 AM 32.8°F0.4°C 24.8°F-4.0°C 72% 6.6 mph SSE10.6 kmh SSE 9.2 mph14.8 kmh 30.35 in1027.8 mb 0.00 in0.0 mm 0.00 in0.0 mm 0.00 in0.0 mm
10:29 AM 32.8°F0.4°C 25.1°F-3.8°C 73% 9.0 mph SSE14.5 kmh SSE 13.3 mph21.4 kmh 30.35 in1027.8 mb 0.00 in0.0 mm 0.00 in0.0 mm 0.00 in0.0 mm
10:24 AM 32.8°F0.4°C 25.8°F-3.4°C 75% 9.5 mph SSE15.3 kmh SSE 13.7 mph22.0 kmh 30.35 in1027.8 mb 0.00 in0.0 mm 0.00 in0.0 mm 0.00 in0.0 mm
10:19 AM 32.7°F0.4°C 26.0°F-3.3°C 76% 8.8 mph SE14.2 kmh SE 12.8 mph20.6 kmh 30.36 in1028.1 mb 0.00 in0.0 mm 0.00 in0.0 mm 0.00 in0.0 mm
10:14 AM 32.7°F0.4°C 26.6°F-3.0°C 78% 8.2 mph SSE13.2 kmh SSE 12.6 mph20.3 kmh 30.36 in1028.1 mb 0.00 in0.0 mm 0.00 in0.0 mm 0.00 in0.0 mm
10:09 AM 32.6°F0.3°C 27.1°F-2.7°C 80% 7.6 mph SSE12.2 kmh SSE 11.6 mph18.7 kmh 30.36 in1028.1 mb 0.00 in0.0 mm 0.00 in0.0 mm 0.00 in0.0 mm
10:04 AM 32.6°F0.3°C 27.7°F-2.4°C 82% 5.6 mph SSE9.0 kmh SSE 7.6 mph12.2 kmh 30.36 in1028.1 mb 0.00 in0.0 mm 0.00 in0.0 mm 0.00 in0.0 mm
09:59 AM 32.6°F0.3°C 27.7°F-2.4°C 82% 5.5 mph SE8.9 kmh SE 9.3 mph15.0 kmh 30.37 in1028.4 mb 0.00 in0.0 mm 0.00 in0.0 mm 0.00 in0.0 mm
09:54 AM 32.5°F0.3°C 27.9°F-2.3°C 83% 4.9 mph SSE7.9 kmh SSE 8.0 mph12.9 kmh 30.36 in1028.1 mb 0.00 in0.0 mm 0.00 in0.0 mm 0.00 in0.0 mm
09:49 AM 32.3°F0.2°C 28.3°F-2.1°C 85% 5.2 mph SSE8.4 kmh SSE 8.5 mph13.7 kmh 30.37 in1028.4 mb 0.00 in0.0 mm 0.00 in0.0 mm 0.00 in0.0 mm
09:44 AM 32.2°F0.1°C 28.8°F-1.8°C 87% 4.6 mph SE7.4 kmh SE 6.8 mph10.9 kmh 30.36 in1028.1 mb 0.00 in0.0 mm 0.00 in0.0 mm 0.00 in0.0 mm
09:39 AM 31.8°F-0.1°C 28.9°F-1.7°C 89% 4.3 mph SSE6.9 kmh SSE 6.5 mph10.5 kmh 30.36 in1028.1 mb 0.00 in0.0 mm 0.00 in0.0 mm 0.00 in0.0 mm
09:34 AM 31.5°F-0.3°C 28.9°F-1.7°C 90% 4.0 mph SSE6.4 kmh SSE 7.7 mph12.4 kmh 30.36 in1028.1 mb 0.00 in0.0 mm 0.00 in0.0 mm 0.00 in0.0 mm
09:29 AM 31.3°F-0.4°C 28.7°F-1.8°C 90% 1.4 mph ENE2.3 kmh ENE 2.7 mph4.3 kmh 30.37 in1028.4 mb 0.00 in0.0 mm 0.00 in0.0 mm 0.00 in0.0 mm
09:24 AM 31.2°F-0.4°C 28.6°F-1.9°C 90% 1.4 mph ENE2.3 kmh ENE 2.7 mph4.3 kmh 30.37 in1028.4 mb 0.00 in0.0 mm 0.00 in0.0 mm 0.00 in0.0 mm
09:19 AM 31.2°F-0.4°C 28.3°F-2.1°C 89% 1.9 mph E3.1 kmh E 4.3 mph6.9 kmh 30.37 in1028.4 mb 0.00 in0.0 mm 0.00 in0.0 mm 0.00 in0.0 mm
09:14 AM 31.1°F-0.5°C 28.2°F-2.1°C 89% 2.6 mph ENE4.2 kmh ENE 5.2 mph8.4 kmh 30.37 in1028.4 mb 0.00 in0.0 mm 0.00 in0.0 mm 0.00 in0.0 mm
09:09 AM 31.0°F-0.6°C 28.1°F-2.2°C 89% 2.5 mph NE4.0 kmh NE 4.5 mph7.2 kmh 30.37 in1028.4 mb 0.00 in0.0 mm 0.00 in0.0 mm 0.00 in0.0 mm
09:04 AM 31.0°F-0.6°C 28.1°F-2.2°C 89% 2.0 mph ENE3.2 kmh ENE 3.8 mph6.1 kmh 30.37 in1028.4 mb 0.00 in0.0 mm 0.00 in0.0 mm 0.00 in0.0 mm
08:59 AM 31.0°F-0.6°C 28.1°F-2.2°C 89% 2.4 mph ENE3.9 kmh ENE 4.9 mph7.9 kmh 30.37 in1028.4 mb 0.00 in0.0 mm 0.00 in0.0 mm 0.00 in0.0 mm
08:54 AM 30.8°F-0.7°C 28.2°F-2.1°C 90% 0.7 mph E1.1 kmh E 2.1 mph3.4 kmh 30.38 in1028.8 mb 0.00 in0.0 mm 0.00 in0.0 mm 0.00 in0.0 mm
08:49 AM 30.8°F-0.7°C 28.2°F-2.1°C 90% 0.5 mph ESE0.8 kmh ESE 1.9 mph3.1 kmh 30.38 in1028.8 mb 0.00 in0.0 mm 0.00 in0.0 mm 0.00 in0.0 mm
08:44 AM 30.7°F-0.7°C 28.1°F-2.2°C 90% 0.6 mph ESE1.0 kmh ESE 1.3 mph2.1 kmh 30.38 in1028.8 mb 0.00 in0.0 mm 0.00 in0.0 mm 0.00 in0.0 mm
08:39 AM 30.6°F-0.8°C 28.3°F-2.1°C 91% 0.9 mph E1.4 kmh E 2.2 mph3.5 kmh 30.38 in1028.8 mb 0.00 in0.0 mm 0.00 in0.0 mm 0.00 in0.0 mm
08:34 AM 30.6°F-0.8°C 28.3°F-2.1°C 91% 1.5 mph ESE2.4 kmh ESE 2.7 mph4.3 kmh 30.38 in1028.8 mb 0.00 in0.0 mm 0.00 in0.0 mm 0.00 in0.0 mm
08:29 AM 30.5°F-0.8°C 28.2°F-2.1°C 91% 1.8 mph ESE2.9 kmh ESE 3.7 mph6.0 kmh 30.38 in1028.8 mb 0.00 in0.0 mm 0.00 in0.0 mm 0.00 in0.0 mm
08:24 AM 30.3°F-0.9°C 28.0°F-2.2°C 91% 3.4 mph SSE5.5 kmh SSE 6.3 mph10.1 kmh 30.37 in1028.4 mb 0.00 in0.0 mm 0.00 in0.0 mm 0.00 in0.0 mm
08:19 AM 30.3°F-0.9°C 27.7°F-2.4°C 90% 3.6 mph ESE5.8 kmh ESE 6.5 mph10.5 kmh 30.37 in1028.4 mb 0.00 in0.0 mm 0.00 in0.0 mm 0.00 in0.0 mm
08:14 AM 30.4°F-0.9°C 27.8°F-2.3°C 90% 3.1 mph E5.0 kmh E 6.5 mph10.5 kmh 30.37 in1028.4 mb 0.00 in0.0 mm 0.00 in0.0 mm 0.00 in0.0 mm
08:09 AM 30.6°F-0.8°C 27.8°F-2.3°C 89% 3.9 mph ESE6.3 kmh ESE 7.0 mph11.3 kmh 30.37 in1028.4 mb 0.00 in0.0 mm 0.00 in0.0 mm 0.00 in0.0 mm
08:04 AM 30.8°F-0.7°C 27.9°F-2.3°C 89% 4.8 mph SE7.7 kmh SE 8.1 mph13.0 kmh 30.38 in1028.8 mb 0.00 in0.0 mm 0.00 in0.0 mm 0.00 in0.0 mm
07:59 AM 30.8°F-0.7°C 27.9°F-2.3°C 89% 3.0 mph ENE4.8 kmh ENE 5.3 mph8.5 kmh 30.38 in1028.8 mb 0.00 in0.0 mm 0.00 in0.0 mm 0.00 in0.0 mm
07:54 AM 30.8°F-0.7°C 27.9°F-2.3°C 89% 4.4 mph ESE7.1 kmh ESE 7.0 mph11.3 kmh 30.37 in1028.4 mb 0.00 in0.0 mm 0.00 in0.0 mm 0.00 in0.0 mm
07:49 AM 30.7°F-0.7°C 27.8°F-2.3°C 89% 4.6 mph ESE7.4 kmh ESE 6.8 mph10.9 kmh 30.38 in1028.8 mb 0.00 in0.0 mm 0.00 in0.0 mm 0.00 in0.0 mm
07:44 AM 30.5°F-0.8°C 27.9°F-2.3°C 90% 4.8 mph SSE7.7 kmh SSE 8.1 mph13.0 kmh 30.37 in1028.4 mb 0.00 in0.0 mm 0.00 in0.0 mm 0.00 in0.0 mm
07:39 AM 30.3°F-0.9°C 27.7°F-2.4°C 90% 4.0 mph SE6.4 kmh SE 6.1 mph9.8 kmh 30.38 in1028.8 mb 0.00 in0.0 mm 0.00 in0.0 mm 0.00 in0.0 mm
07:34 AM 30.3°F-0.9°C 28.0°F-2.2°C 91% 3.3 mph SSE5.3 kmh SSE 6.1 mph9.8 kmh 30.38 in1028.8 mb 0.00 in0.0 mm 0.00 in0.0 mm 0.00 in0.0 mm
07:29 AM 30.3°F-0.9°C 28.0°F-2.2°C 91% 2.5 mph SSE4.0 kmh SSE 4.0 mph6.4 kmh 30.38 in1028.8 mb 0.00 in0.0 mm 0.00 in0.0 mm 0.00 in0.0 mm
07:24 AM 30.2°F-1.0°C 27.9°F-2.3°C 91% 2.3 mph ESE3.7 kmh ESE 4.0 mph6.4 kmh 30.38 in1028.8 mb 0.00 in0.0 mm 0.00 in0.0 mm 0.00 in0.0 mm
07:19 AM 30.1°F-1.1°C 28.1°F-2.2°C 92% 2.1 mph SE3.4 kmh SE 3.5 mph5.6 kmh 30.38 in1028.8 mb 0.00 in0.0 mm 0.00 in0.0 mm 0.00 in0.0 mm
07:14 AM 30.1°F-1.1°C 28.1°F-2.2°C 92% 2.9 mph SE4.7 kmh SE 4.2 mph6.8 kmh 30.38 in1028.8 mb 0.00 in0.0 mm 0.00 in0.0 mm 0.00 in0.0 mm
07:09 AM 30.1°F-1.1°C 28.1°F-2.2°C 92% 3.0 mph SSE4.8 kmh SSE 4.2 mph6.8 kmh 30.38 in1028.8 mb 0.00 in0.0 mm 0.00 in0.0 mm 0.00 in0.0 mm
07:04 AM 30.0°F-1.1°C 28.2°F-2.1°C 93% 4.0 mph SSE6.4 kmh SSE 6.8 mph10.9 kmh 30.38 in1028.8 mb 0.00 in0.0 mm 0.00 in0.0 mm 0.00 in0.0 mm
06:59 AM 30.0°F-1.1°C 28.2°F-2.1°C 93% 3.9 mph SSE6.3 kmh SSE 7.3 mph11.7 kmh 30.38 in1028.8 mb 0.00 in0.0 mm 0.00 in0.0 mm 0.00 in0.0 mm
06:54 AM 30.0°F-1.1°C 28.5°F-1.9°C 94% 2.5 mph SE4.0 kmh SE 4.7 mph7.6 kmh 30.39 in1029.1 mb 0.00 in0.0 mm 0.00 in0.0 mm 0.00 in0.0 mm
06:49 AM 29.8°F-1.2°C 28.3°F-2.1°C 94% 3.7 mph SE6.0 kmh SE 6.2 mph10.0 kmh 30.39 in1029.1 mb 0.00 in0.0 mm 0.00 in0.0 mm 0.00 in0.0 mm
06:44 AM 29.8°F-1.2°C 28.3°F-2.1°C 94% 3.0 mph SE4.8 kmh SE 4.4 mph7.1 kmh 30.39 in1029.1 mb 0.00 in0.0 mm 0.00 in0.0 mm 0.00 in0.0 mm
06:39 AM 29.8°F-1.2°C 28.3°F-2.1°C 94% 3.7 mph SE6.0 kmh SE 6.1 mph9.8 kmh 30.39 in1029.1 mb 0.00 in0.0 mm 0.00 in0.0 mm 0.00 in0.0 mm
06:34 AM 29.6°F-1.3°C 28.1°F-2.2°C 94% 2.8 mph SSE4.5 kmh SSE 4.6 mph7.4 kmh 30.40 in1029.5 mb 0.00 in0.0 mm 0.00 in0.0 mm 0.00 in0.0 mm
06:29 AM 29.5°F-1.4°C 28.2°F-2.1°C 95% 3.5 mph ESE5.6 kmh ESE 5.8 mph9.3 kmh 30.39 in1029.1 mb 0.00 in0.0 mm 0.00 in0.0 mm 0.00 in0.0 mm
06:24 AM 29.3°F-1.5°C 27.8°F-2.3°C 94% 2.9 mph SE4.7 kmh SE 4.3 mph6.9 kmh 30.39 in1029.1 mb 0.00 in0.0 mm 0.00 in0.0 mm 0.00 in0.0 mm
06:19 AM 29.3°F-1.5°C 27.8°F-2.3°C 94% 3.4 mph SE5.5 kmh SE 5.4 mph8.7 kmh 30.40 in1029.5 mb 0.00 in0.0 mm 0.00 in0.0 mm 0.00 in0.0 mm
06:14 AM 29.2°F-1.6°C 27.7°F-2.4°C 94% 1.6 mph ESE2.6 kmh ESE 2.9 mph4.7 kmh 30.40 in1029.5 mb 0.00 in0.0 mm 0.00 in0.0 mm 0.00 in0.0 mm
06:09 AM 29.1°F-1.6°C 27.6°F-2.4°C 94% 2.1 mph SE3.4 kmh SE 3.6 mph5.8 kmh 30.40 in1029.5 mb 0.00 in0.0 mm 0.00 in0.0 mm 0.00 in0.0 mm
06:04 AM 29.1°F-1.6°C 27.6°F-2.4°C 94% 3.0 mph ESE4.8 kmh ESE 4.8 mph7.7 kmh 30.40 in1029.5 mb 0.00 in0.0 mm 0.00 in0.0 mm 0.00 in0.0 mm
05:59 AM 29.0°F-1.7°C 27.5°F-2.5°C 94% 2.5 mph ESE4.0 kmh ESE 4.6 mph7.4 kmh 30.41 in1029.8 mb 0.00 in0.0 mm 0.00 in0.0 mm 0.00 in0.0 mm
05:54 AM 28.8°F-1.8°C 27.0°F-2.8°C 93% 2.8 mph ESE4.5 kmh ESE 4.4 mph7.1 kmh 30.40 in1029.5 mb 0.00 in0.0 mm 0.00 in0.0 mm 0.00 in0.0 mm
05:49 AM 28.8°F-1.8°C 27.0°F-2.8°C 93% 3.2 mph ESE5.1 kmh ESE 5.0 mph8.0 kmh 30.40 in1029.5 mb 0.00 in0.0 mm 0.00 in0.0 mm 0.00 in0.0 mm
05:44 AM 28.8°F-1.8°C 27.0°F-2.8°C 93% 2.5 mph ESE4.0 kmh ESE 3.9 mph6.3 kmh 30.41 in1029.8 mb 0.00 in0.0 mm 0.00 in0.0 mm 0.00 in0.0 mm
05:39 AM 28.7°F-1.8°C 26.9°F-2.8°C 93% 2.1 mph ESE3.4 kmh ESE 3.2 mph5.1 kmh 30.41 in1029.8 mb 0.00 in0.0 mm 0.00 in0.0 mm 0.00 in0.0 mm
05:34 AM 28.7°F-1.8°C 26.9°F-2.8°C 93% 2.3 mph E3.7 kmh E 3.5 mph5.6 kmh 30.41 in1029.8 mb 0.00 in0.0 mm 0.00 in0.0 mm 0.00 in0.0 mm
05:29 AM 28.7°F-1.8°C 26.9°F-2.8°C 93% 2.1 mph SSE3.4 kmh SSE 3.2 mph5.1 kmh 30.41 in1029.8 mb 0.00 in0.0 mm 0.00 in0.0 mm 0.00 in0.0 mm
05:24 AM 28.7°F-1.8°C 26.9°F-2.8°C 93% 1.8 mph SSE2.9 kmh SSE 2.3 mph3.7 kmh 30.42 in1030.1 mb 0.00 in0.0 mm 0.00 in0.0 mm 0.00 in0.0 mm
05:19 AM 28.6°F-1.9°C 26.8°F-2.9°C 93% 2.0 mph SSE3.2 kmh SSE 2.7 mph4.3 kmh 30.42 in1030.1 mb 0.00 in0.0 mm 0.00 in0.0 mm 0.00 in0.0 mm
05:14 AM 28.6°F-1.9°C 26.6°F-3.0°C 92% 1.6 mph SSE2.6 kmh SSE 2.7 mph4.3 kmh 30.42 in1030.1 mb 0.00 in0.0 mm 0.00 in0.0 mm 0.00 in0.0 mm
05:09 AM 28.6°F-1.9°C 26.6°F-3.0°C 92% 2.0 mph SSE3.2 kmh SSE 2.8 mph4.5 kmh 30.42 in1030.1 mb 0.00 in0.0 mm 0.00 in0.0 mm 0.00 in0.0 mm
05:04 AM 28.6°F-1.9°C 26.6°F-3.0°C 92% 0.4 mph SSW0.6 kmh SSW 0.9 mph1.4 kmh 30.41 in1029.8 mb 0.00 in0.0 mm 0.00 in0.0 mm 0.00 in0.0 mm
04:59 AM 28.6°F-1.9°C 26.3°F-3.2°C 91% 0.7 mph SSW1.1 kmh SSW 1.8 mph2.9 kmh 30.42 in1030.1 mb 0.00 in0.0 mm 0.00 in0.0 mm 0.00 in0.0 mm
04:54 AM 28.5°F-1.9°C 26.2°F-3.2°C 91% 0.3 mph SSW0.5 kmh SSW 1.2 mph1.9 kmh 30.42 in1030.1 mb 0.00 in0.0 mm 0.00 in0.0 mm 0.00 in0.0 mm
04:49 AM 28.3°F-2.1°C 26.0°F-3.3°C 91% 0.7 mph SSW1.1 kmh SSW 1.4 mph2.3 kmh 30.42 in1030.1 mb 0.00 in0.0 mm 0.00 in0.0 mm 0.00 in0.0 mm
04:44 AM 28.3°F-2.1°C 25.8°F-3.4°C 90% 2.2 mph SSW3.5 kmh SSW 3.2 mph5.1 kmh 30.42 in1030.1 mb 0.00 in0.0 mm 0.00 in0.0 mm 0.00 in0.0 mm
04:39 AM 28.3°F-2.1°C 25.8°F-3.4°C 90% 2.5 mph SSW4.0 kmh SSW 3.2 mph5.1 kmh 30.42 in1030.1 mb 0.00 in0.0 mm 0.00 in0.0 mm 0.00 in0.0 mm
04:34 AM 28.3°F-2.1°C 25.8°F-3.4°C 90% 2.4 mph SSW3.9 kmh SSW 3.1 mph5.0 kmh 30.42 in1030.1 mb 0.00 in0.0 mm 0.00 in0.0 mm 0.00 in0.0 mm
04:29 AM 28.5°F-1.9°C 25.7°F-3.5°C 89% 3.5 mph SSW5.6 kmh SSW 4.5 mph7.2 kmh 30.42 in1030.1 mb 0.00 in0.0 mm 0.00 in0.0 mm 0.00 in0.0 mm
04:24 AM 28.5°F-1.9°C 25.4°F-3.7°C 88% 2.9 mph SW4.7 kmh SW 3.9 mph6.3 kmh 30.43 in1030.5 mb 0.00 in0.0 mm 0.00 in0.0 mm 0.00 in0.0 mm
04:19 AM 28.7°F-1.8°C 25.3°F-3.7°C 87% 3.3 mph SW5.3 kmh SW 4.6 mph7.4 kmh 30.43 in1030.5 mb 0.00 in0.0 mm 0.00 in0.0 mm 0.00 in0.0 mm
04:14 AM 28.8°F-1.8°C 25.2°F-3.8°C 86% 3.5 mph SW5.6 kmh SW 4.6 mph7.4 kmh 30.43 in1030.5 mb 0.00 in0.0 mm 0.00 in0.0 mm 0.00 in0.0 mm
04:09 AM 29.0°F-1.7°C 25.1°F-3.8°C 85% 4.2 mph SSW6.8 kmh SSW 6.4 mph10.3 kmh 30.43 in1030.5 mb 0.00 in0.0 mm 0.00 in0.0 mm 0.00 in0.0 mm
04:04 AM 29.3°F-1.5°C 25.1°F-3.8°C 84% 3.6 mph SW5.8 kmh SW 5.0 mph8.0 kmh 30.43 in1030.5 mb 0.00 in0.0 mm 0.00 in0.0 mm 0.00 in0.0 mm
03:59 AM 29.6°F-1.3°C 24.8°F-4.0°C 82% 5.1 mph SW8.2 kmh SW 6.7 mph10.8 kmh 30.43 in1030.5 mb 0.00 in0.0 mm 0.00 in0.0 mm 0.00 in0.0 mm
03:54 AM 29.8°F-1.2°C 24.4°F-4.2°C 80% 4.4 mph SSW7.1 kmh SSW 5.9 mph9.5 kmh 30.43 in1030.5 mb 0.00 in0.0 mm 0.00 in0.0 mm 0.00 in0.0 mm
03:49 AM 30.0°F-1.1°C 24.3°F-4.3°C 79% 3.7 mph SW6.0 kmh SW 4.9 mph7.9 kmh 30.43 in1030.5 mb 0.00 in0.0 mm 0.00 in0.0 mm 0.00 in0.0 mm
03:44 AM 30.1°F-1.1°C 24.1°F-4.4°C 78% 2.4 mph SW3.9 kmh SW 3.4 mph5.5 kmh 30.43 in1030.5 mb 0.00 in0.0 mm 0.00 in0.0 mm 0.00 in0.0 mm
03:39 AM 30.2°F-1.0°C 23.9°F-4.5°C 77% Calm Calm -- 30.43 in1030.5 mb 0.00 in0.0 mm 0.00 in0.0 mm 0.00 in0.0 mm
03:34 AM 30.3°F-0.9°C 24.0°F-4.4°C 77% Calm Calm -- 30.43 in1030.5 mb 0.00 in0.0 mm 0.00 in0.0 mm 0.00 in0.0 mm
03:29 AM 30.3°F-0.9°C 23.7°F-4.6°C 76% Calm Calm -- 30.43 in1030.5 mb 0.00 in0.0 mm 0.00 in0.0 mm 0.00 in0.0 mm
03:24 AM 30.5°F-0.8°C 23.9°F-4.5°C 76% Calm Calm -- 30.43 in1030.5 mb 0.00 in0.0 mm 0.00 in0.0 mm 0.00 in0.0 mm
03:19 AM 30.5°F-0.8°C 23.5°F-4.7°C 75% Calm Calm -- 30.44 in1030.8 mb 0.00 in0.0 mm 0.00 in0.0 mm 0.00 in0.0 mm
03:14 AM 30.4°F-0.9°C 23.1°F-4.9°C 74% Calm Calm -- 30.44 in1030.8 mb 0.00 in0.0 mm 0.00 in0.0 mm 0.00 in0.0 mm
03:09 AM 30.3°F-0.9°C 23.0°F-5.0°C 74% Calm Calm -- 30.44 in1030.8 mb 0.00 in0.0 mm 0.00 in0.0 mm 0.00 in0.0 mm
03:04 AM 30.3°F-0.9°C 23.0°F-5.0°C 74% Calm Calm -- 30.44 in1030.8 mb 0.00 in0.0 mm 0.00 in0.0 mm 0.00 in0.0 mm
02:59 AM 30.3°F-0.9°C 23.3°F-4.8°C 75% Calm Calm -- 30.44 in1030.8 mb 0.00 in0.0 mm 0.00 in0.0 mm 0.00 in0.0 mm
02:54 AM 30.3°F-0.9°C 23.3°F-4.8°C 75% Calm Calm -- 30.44 in1030.8 mb 0.00 in0.0 mm 0.00 in0.0 mm 0.00 in0.0 mm
02:49 AM 30.3°F-0.9°C 23.3°F-4.8°C 75% Calm Calm -- 30.45 in1031.2 mb 0.00 in0.0 mm 0.00 in0.0 mm 0.00 in0.0 mm
02:44 AM 30.5°F-0.8°C 23.5°F-4.7°C 75% Calm Calm -- 30.45 in1031.2 mb 0.00 in0.0 mm 0.00 in0.0 mm 0.00 in0.0 mm
02:39 AM 30.3°F-0.9°C 23.0°F-5.0°C 74% Calm Calm -- 30.45 in1031.2 mb 0.00 in0.0 mm 0.00 in0.0 mm 0.00 in0.0 mm
02:34 AM 30.3°F-0.9°C 22.7°F-5.2°C 73% Calm Calm -- 30.45 in1031.2 mb 0.00 in0.0 mm 0.00 in0.0 mm 0.00 in0.0 mm
02:29 AM 30.5°F-0.8°C 22.9°F-5.1°C 73% Calm Calm -- 30.45 in1031.2 mb 0.00 in0.0 mm 0.00 in0.0 mm 0.00 in0.0 mm
02:24 AM 30.6°F-0.8°C 23.0°F-5.0°C 73% Calm Calm -- 30.45 in1031.2 mb 0.00 in0.0 mm 0.00 in0.0 mm 0.00 in0.0 mm
02:19 AM 30.6°F-0.8°C 23.0°F-5.0°C 73% Calm Calm -- 30.45 in1031.2 mb 0.00 in0.0 mm 0.00 in0.0 mm 0.00 in0.0 mm
02:14 AM 30.6°F-0.8°C 22.7°F-5.2°C 72% Calm Calm -- 30.45 in1031.2 mb 0.00 in0.0 mm 0.00 in0.0 mm 0.00 in0.0 mm
02:09 AM 30.7°F-0.7°C 23.1°F-4.9°C 73% Calm Calm -- 30.45 in1031.2 mb 0.00 in0.0 mm 0.00 in0.0 mm 0.00 in0.0 mm
02:04 AM 30.8°F-0.7°C 23.2°F-4.9°C 73% Calm Calm -- 30.45 in1031.2 mb 0.00 in0.0 mm 0.00 in0.0 mm 0.00 in0.0 mm
01:59 AM 30.8°F-0.7°C 23.2°F-4.9°C 73% Calm Calm -- 30.45 in1031.2 mb 0.00 in0.0 mm 0.00 in0.0 mm 0.00 in0.0 mm
01:54 AM 30.8°F-0.7°C 22.9°F-5.1°C 72% Calm Calm -- 30.45 in1031.2 mb 0.00 in0.0 mm 0.00 in0.0 mm 0.00 in0.0 mm
01:49 AM 30.8°F-0.7°C 22.9°F-5.1°C 72% Calm Calm -- 30.45 in1031.2 mb 0.00 in0.0 mm 0.00 in0.0 mm 0.00 in0.0 mm
01:44 AM 30.9°F-0.6°C 23.0°F-5.0°C 72% Calm Calm -- 30.45 in1031.2 mb 0.00 in0.0 mm 0.00 in0.0 mm 0.00 in0.0 mm
01:39 AM 31.0°F-0.6°C 22.7°F-5.2°C 71% Calm Calm -- 30.45 in1031.2 mb 0.00 in0.0 mm 0.00 in0.0 mm 0.00 in0.0 mm
01:34 AM 31.0°F-0.6°C 22.7°F-5.2°C 71% Calm Calm -- 30.45 in1031.2 mb 0.00 in0.0 mm 0.00 in0.0 mm 0.00 in0.0 mm
01:29 AM 31.0°F-0.6°C 22.4°F-5.3°C 70% Calm Calm -- 30.45 in1031.2 mb 0.00 in0.0 mm 0.00 in0.0 mm 0.00 in0.0 mm
01:24 AM 31.0°F-0.6°C 22.4°F-5.3°C 70% Calm Calm -- 30.45 in1031.2 mb 0.00 in0.0 mm 0.00 in0.0 mm 0.00 in0.0 mm
01:19 AM 30.8°F-0.7°C 22.2°F-5.4°C 70% Calm Calm -- 30.45 in1031.2 mb 0.00 in0.0 mm 0.00 in0.0 mm 0.00 in0.0 mm
01:14 AM 30.8°F-0.7°C 22.5°F-5.3°C 71% Calm Calm -- 30.45 in1031.2 mb 0.00 in0.0 mm 0.00 in0.0 mm 0.00 in0.0 mm
01:09 AM 30.8°F-0.7°C 22.5°F-5.3°C 71% 0.3 mph SSW0.5 kmh SSW 0.9 mph1.4 kmh 30.46 in1031.5 mb 0.00 in0.0 mm 0.00 in0.0 mm 0.00 in0.0 mm
01:04 AM 30.8°F-0.7°C 22.5°F-5.3°C 71% 0.4 mph SSW0.6 kmh SSW 1.2 mph1.9 kmh 30.45 in1031.2 mb 0.00 in0.0 mm 0.00 in0.0 mm 0.00 in0.0 mm
12:59 AM 30.8°F-0.7°C 22.5°F-5.3°C 71% Calm Calm -- 30.45 in1031.2 mb 0.00 in0.0 mm 0.00 in0.0 mm 0.00 in0.0 mm
12:54 AM 30.7°F-0.7°C 22.4°F-5.3°C 71% Calm Calm 0.3 mph0.5 kmh 30.45 in1031.2 mb 0.00 in0.0 mm 0.00 in0.0 mm 0.00 in0.0 mm
12:49 AM 30.6°F-0.8°C 22.3°F-5.4°C 71% 0.3 mph SSW0.5 kmh SSW 0.7 mph1.1 kmh 30.45 in1031.2 mb 0.00 in0.0 mm 0.00 in0.0 mm 0.00 in0.0 mm
12:44 AM 30.6°F-0.8°C 22.7°F-5.2°C 72% 0.7 mph SSW1.1 kmh SSW 1.7 mph2.7 kmh 30.46 in1031.5 mb 0.00 in0.0 mm 0.00 in0.0 mm 0.00 in0.0 mm
12:39 AM 30.6°F-0.8°C 22.7°F-5.2°C 72% 2.2 mph SSW3.5 kmh SSW 2.7 mph4.3 kmh 30.46 in1031.5 mb 0.00 in0.0 mm 0.00 in0.0 mm 0.00 in0.0 mm
12:34 AM 30.7°F-0.7°C 22.4°F-5.3°C 71% 2.4 mph SSW3.9 kmh SSW 3.2 mph5.1 kmh 30.46 in1031.5 mb 0.00 in0.0 mm 0.00 in0.0 mm 0.00 in0.0 mm
12:29 AM 30.7°F-0.7°C 22.4°F-5.3°C 71% 1.8 mph SSW2.9 kmh SSW 2.3 mph3.7 kmh 30.46 in1031.5 mb 0.00 in0.0 mm 0.00 in0.0 mm 0.00 in0.0 mm
12:24 AM 30.8°F-0.7°C 22.2°F-5.4°C 70% 2.2 mph SSW3.5 kmh SSW 2.7 mph4.3 kmh 30.46 in1031.5 mb 0.00 in0.0 mm 0.00 in0.0 mm 0.00 in0.0 mm
12:19 AM 30.8°F-0.7°C 22.2°F-5.4°C 70% 2.0 mph SSW3.2 kmh SSW 2.6 mph4.2 kmh 30.46 in1031.5 mb 0.00 in0.0 mm 0.00 in0.0 mm 0.00 in0.0 mm
12:14 AM 30.8°F-0.7°C 22.2°F-5.4°C 70% 2.7 mph SSW4.3 kmh SSW 3.5 mph5.6 kmh 30.46 in1031.5 mb 0.00 in0.0 mm 0.00 in0.0 mm 0.00 in0.0 mm
12:09 AM 30.8°F-0.7°C 22.2°F-5.4°C 70% 2.5 mph SSW4.0 kmh SSW 3.0 mph4.8 kmh 30.46 in1031.5 mb 0.00 in0.0 mm 0.00 in0.0 mm 0.00 in0.0 mm
12:04 AM 30.8°F-0.7°C 21.9°F-5.6°C 69% 0.5 mph SSW0.8 kmh SSW 1.4 mph2.3 kmh 30.47 in1031.8 mb 0.00 in0.0 mm 0.00 in0.0 mm 0.00 in0.0 mm